Time;durP1;ratioP1;P1;durP2;ratioP2;P2;SDS_P1;SDS_P2;PMS_P1;PMS_P2;Temp;Humidity;BMP_temperature;BMP_pressure;BME280_temperature;BME280_humidity;BME280_pressure;Samples;Min_cycle;Max_cycle;Signal;HPM_P1;HPM_P2
2022/04/16 00:02:12;;;;;;;2.72;2.40;;;;;;;14.59;45.87;98924.44;8330236;28;20446;-77
2022/04/16 00:06:17;;;;;;;3.27;2.80;;;;;;;14.27;46.69;98929.28;8348954;28;20199;-78
2022/04/16 00:10:20;;;;;;;2.73;2.53;;;;;;;13.90;47.86;98927.47;8348474;28;20404;-77
2022/04/16 00:14:23;;;;;;;2.93;2.73;;;;;;;14.01;48.22;98927.84;8348774;28;20228;-77
2022/04/16 00:18:26;;;;;;;2.97;2.70;;;;;;;14.03;48.31;98926.00;8348716;28;20266;-78
2022/04/16 00:22:31;;;;;;;3.37;2.97;;;;;;;13.95;48.07;98929.84;8349000;28;20231;-78
2022/04/16 00:26:38;;;;;;;2.77;2.47;;;;;;;13.76;48.20;98929.78;8348974;28;20270;-78
2022/04/16 00:30:42;;;;;;;3.87;2.90;;;;;;;14.00;47.70;98928.75;8349151;28;20459;-78
2022/04/16 00:34:46;;;;;;;3.00;2.70;;;;;;;13.76;47.81;98935.81;8340323;28;20224;-77
2022/04/16 00:38:51;;;;;;;3.40;2.80;;;;;;;13.61;47.10;98934.72;8328827;28;20209;-78
2022/04/16 00:42:54;;;;;;;4.73;2.90;;;;;;;13.65;46.71;98935.41;8315747;28;20205;-77
2022/04/16 00:46:57;;;;;;;3.10;2.80;;;;;;;13.74;46.38;98932.44;8316036;28;20201;-78
2022/04/16 00:51:00;;;;;;;3.47;3.10;;;;;;;13.58;46.42;98929.63;8315252;28;20248;-77
2022/04/16 00:55:06;;;;;;;3.53;3.23;;;;;;;13.61;46.31;98929.53;8315735;28;20559;-78
2022/04/16 00:59:09;;;;;;;3.70;3.40;;;;;;;13.75;46.04;98930.72;8315663;28;20209;-77
2022/04/16 01:03:12;;;;;;;3.90;3.57;;;;;;;13.63;45.97;98934.66;8317466;28;20205;-77
2022/04/16 01:07:15;;;;;;;3.80;3.50;;;;;;;13.69;46.20;98932.66;8321356;28;20204;-77
2022/04/16 01:11:19;;;;;;;3.63;3.33;;;;;;;13.76;45.66;98930.63;8321169;28;20201;-78
2022/04/16 01:15:23;;;;;;;3.47;3.17;;;;;;;13.65;46.14;98920.69;8320987;28;20208;-77
2022/04/16 01:19:26;;;;;;;3.73;3.43;;;;;;;13.78;45.79;98923.59;8320990;28;20212;-77
2022/04/16 01:23:31;;;;;;;4.20;3.77;;;;;;;13.86;45.85;98931.94;8320707;28;20225;-78
2022/04/16 01:27:35;;;;;;;5.40;3.90;;;;;;;13.75;45.83;98934.16;8320056;28;20201;-77
2022/04/16 01:31:38;;;;;;;4.57;4.17;;;;;;;13.72;45.92;98934.25;8320494;28;20340;-78
2022/04/16 01:35:41;;;;;;;4.57;4.03;;;;;;;13.78;45.46;98939.22;8319972;28;20205;-77
2022/04/16 01:39:46;;;;;;;4.87;4.47;;;;;;;13.78;45.49;98941.81;8320027;28;20363;-77
2022/04/16 01:43:48;;;;;;;5.13;4.70;;;;;;;13.63;45.98;98939.84;8319731;28;20296;-78
2022/04/16 01:47:52;;;;;;;5.17;4.77;;;;;;;13.69;45.73;98943.06;8320183;28;20201;-78
2022/04/16 01:51:57;;;;;;;5.57;4.97;;;;;;;13.74;45.91;98936.81;8319845;28;20244;-78
2022/04/16 01:56:01;;;;;;;4.90;4.50;;;;;;;13.66;45.88;98939.72;8319567;28;20202;-78
2022/04/16 02:00:06;;;;;;;5.00;4.60;;;;;;;13.61;46.17;98942.53;8319553;28;20208;-78
2022/04/16 02:04:09;;;;;;;5.40;4.90;;;;;;;13.68;46.20;98943.97;8319874;28;20484;-78
2022/04/16 02:08:12;;;;;;;6.17;5.37;;;;;;;13.73;46.26;98945.50;8318988;28;20212;-78
2022/04/16 02:12:16;;;;;;;5.83;5.30;;;;;;;13.72;46.05;98938.63;8319074;28;20427;-78
2022/04/16 02:16:19;;;;;;;5.53;5.03;;;;;;;13.63;46.60;98940.72;8318358;28;20268;-78
2022/04/16 02:20:23;;;;;;;6.50;5.90;;;;;;;13.65;46.46;98944.09;8318344;28;20268;-78
2022/04/16 02:24:27;;;;;;;5.87;5.37;;;;;;;13.65;46.69;98945.84;8318205;28;20225;-78
2022/04/16 02:28:31;;;;;;;5.17;4.77;;;;;;;13.79;46.41;98947.88;8318499;28;20264;-78
2022/04/16 02:32:38;;;;;;;6.30;5.70;;;;;;;13.71;46.96;98942.13;8318579;28;20229;-77
2022/04/16 02:36:41;;;;;;;6.53;5.73;;;;;;;13.45;47.42;98942.31;8318448;28;20189;-78
2022/04/16 02:40:44;;;;;;;6.63;5.60;;;;;;;13.60;46.56;98940.84;8317882;28;20201;-77
2022/04/16 02:49:09;;;;;;;6.30;5.80;;;;;;;13.66;46.82;98929.31;8317578;28;20200;-78
2022/04/16 02:53:12;;;;;;;6.47;5.87;;;;;;;13.56;46.95;98925.41;8317357;28;20551;-78
2022/04/16 02:57:15;;;;;;;6.57;5.97;;;;;;;13.63;46.83;98925.09;8317600;28;20216;-78
2022/04/16 03:01:19;;;;;;;6.27;5.77;;;;;;;13.58;47.16;98932.25;8317307;28;20208;-78
2022/04/16 03:05:23;;;;;;;6.57;5.97;;;;;;;13.42;47.59;98933.75;8317012;28;20212;-78
2022/04/16 03:09:26;;;;;;;6.43;5.73;;;;;;;13.42;47.34;98936.38;8316973;28;20215;-78
2022/04/16 03:13:29;;;;;;;7.13;6.43;;;;;;;13.51;47.37;98932.56;8316892;28;20235;-78
2022/04/16 03:17:32;;;;;;;6.20;5.60;;;;;;;13.41;47.64;98934.69;8317536;28;20227;-77
2022/04/16 03:21:35;;;;;;;6.80;6.10;;;;;;;13.33;48.05;98949.75;8317049;28;20201;-78
2022/04/16 03:25:43;;;;;;;6.70;6.00;;;;;;;13.51;47.53;98937.75;8316331;28;20225;-77
2022/04/16 03:29:46;;;;;;;6.53;5.90;;;;;;;13.56;47.55;98933.22;8308808;28;20407;-77
2022/04/16 03:33:51;;;;;;;6.83;6.23;;;;;;;13.53;47.68;98931.56;8317219;28;20278;-78
2022/04/16 03:37:55;;;;;;;6.93;6.23;;;;;;;13.62;47.87;98940.78;8317258;28;20456;-77
2022/04/16 03:41:57;;;;;;;6.80;6.20;;;;;;;13.25;48.21;98945.69;8316863;28;20448;-78
2022/04/16 03:46:00;;;;;;;6.77;6.17;;;;;;;13.48;47.98;98936.16;8316262;28;20205;-77
2022/04/16 03:50:05;;;;;;;7.10;6.40;;;;;;;13.22;48.36;98951.00;8316065;28;20205;-78
2022/04/16 04:02:49;;;;;;;9.47;8.57;;;;;;;12.39;49.81;98951.50;8316240;28;20205;-77
2022/04/16 04:06:54;;;;;;;11.43;8.60;;;;;;;12.73;49.34;98965.03;8316653;28;20251;-77
2022/04/16 04:10:57;;;;;;;9.37;8.47;;;;;;;12.99;49.13;98983.09;8316023;28;20204;-78
2022/04/16 04:15:00;;;;;;;9.30;8.40;;;;;;;12.93;49.24;98974.66;8315963;28;20235;-77
2022/04/16 04:19:03;;;;;;;13.30;10.33;;;;;;;12.50;50.14;98972.75;8315985;28;20272;-77
2022/04/16 04:23:07;;;;;;;11.20;10.10;;;;;;;12.46;49.90;98989.34;8315541;28;20221;-77
2022/04/16 04:27:11;;;;;;;10.97;9.73;;;;;;;12.31;49.61;98992.50;8315635;28;20201;-77
2022/04/16 04:31:14;;;;;;;10.70;9.67;;;;;;;12.76;49.20;98998.72;8315929;28;20201;-77
2022/04/16 04:35:17;;;;;;;12.60;10.27;;;;;;;12.38;50.18;98995.75;8315637;28;20233;-77
2022/04/16 04:39:24;;;;;;;11.97;10.77;;;;;;;12.44;49.80;99008.50;8319618;28;20201;-77
2022/04/16 04:43:28;;;;;;;12.13;10.83;;;;;;;12.38;50.22;99012.16;8322007;28;20223;-78
2022/04/16 04:47:31;;;;;;;12.77;11.47;;;;;;;12.29;50.64;99018.53;8321813;28;20201;-78
2022/04/16 04:51:33;;;;;;;12.27;11.07;;;;;;;12.60;49.60;99021.78;8321427;28;20264;-78
2022/04/16 04:55:38;;;;;;;12.23;10.93;;;;;;;12.57;49.93;99027.13;8321785;28;20251;-78
2022/04/16 04:59:41;;;;;;;12.47;11.17;;;;;;;11.92;51.20;99027.56;8321280;28;20205;-78
2022/04/16 05:03:44;;;;;;;11.67;10.47;;;;;;;11.61;52.15;99037.19;8321639;28;20205;-78
2022/04/16 05:07:47;;;;;;;11.90;10.70;;;;;;;11.82;51.36;99040.84;8313255;28;20207;-78
2022/04/16 05:11:51;;;;;;;11.23;10.03;;;;;;;12.13;50.41;99049.38;8320918;28;20205;-78
2022/04/16 05:15:54;;;;;;;11.20;9.80;;;;;;;12.41;49.24;99051.00;8320933;28;20225;-78
2022/04/16 05:19:57;;;;;;;9.83;8.83;;;;;;;12.35;49.20;99053.00;8320380;28;20198;-78
2022/04/16 05:24:01;;;;;;;11.30;10.07;;;;;;;12.23;49.28;99051.66;8346965;28;20216;-78
2022/04/16 05:28:06;;;;;;;11.17;10.07;;;;;;;12.17;49.43;99060.50;8353525;28;20521;-78
2022/04/16 05:32:10;;;;;;;13.13;11.20;;;;;;;12.27;49.25;99074.88;8353684;28;20378;-78
2022/04/16 05:36:13;;;;;;;11.80;10.60;;;;;;;12.41;49.18;99070.94;8353083;28;20232;-78
2022/04/16 05:40:16;;;;;;;14.03;12.10;;;;;;;12.39;49.77;99077.97;8353121;28;20200;-78
2022/04/16 05:44:20;;;;;;;13.03;11.63;;;;;;;12.59;49.24;99078.13;8352903;28;20205;-77
2022/04/16 05:48:26;;;;;;;14.73;13.13;;;;;;;12.49;49.09;99089.75;8352360;28;20206;-77
2022/04/16 05:52:29;;;;;;;15.37;13.60;;;;;;;12.44;49.14;99096.84;8353032;28;20421;-78
2022/04/16 05:56:32;;;;;;;15.37;13.77;;;;;;;12.28;49.58;99094.75;8352339;28;20232;-78
2022/04/16 06:00:37;;;;;;;16.70;15.03;;;;;;;12.24;49.66;99097.50;8352375;28;20402;-78
2022/04/16 06:04:43;;;;;;;16.37;14.67;;;;;;;12.44;49.48;99096.84;8324294;28;20383;-78
2022/04/16 06:08:46;;;;;;;16.60;14.63;;;;;;;12.32;48.91;99109.34;8319571;28;20508;-77
2022/04/16 06:12:48;;;;;;;16.73;14.93;;;;;;;12.13;49.43;99122.06;8319087;28;20208;-77
2022/04/16 06:16:53;;;;;;;18.13;16.33;;;;;;;12.06;49.54;99124.91;8318793;28;20205;-77
2022/04/16 06:20:56;;;;;;;17.67;15.87;;;;;;;11.86;49.87;99121.19;8318601;28;20204;-78
2022/04/16 06:24:59;;;;;;;18.70;16.90;;;;;;;12.13;49.29;99123.84;8318796;28;20256;-78
2022/04/16 06:29:09;;;;;;;18.27;16.47;;;;;;;12.11;49.27;99123.03;8319206;28;20472;-77
2022/04/16 06:33:13;;;;;;;18.40;16.40;;;;;;;12.35;48.92;99125.72;8318828;28;20385;-77
2022/04/16 06:37:16;;;;;;;20.80;18.60;;;;;;;12.16;48.92;99128.06;8318726;28;20208;-77
2022/04/16 06:41:19;;;;;;;21.10;18.10;;;;;;;12.06;48.68;99130.13;8318368;28;20208;-78
2022/04/16 06:45:22;;;;;;;19.93;17.83;;;;;;;12.24;48.89;99126.06;8318069;28;20208;-78
2022/04/16 06:49:27;;;;;;;19.87;17.50;;;;;;;12.46;48.12;99126.22;8318256;28;20205;-78
2022/04/16 06:53:29;;;;;;;18.17;16.27;;;;;;;12.12;47.87;99135.09;8326073;28;20239;-76
2022/04/16 06:57:33;;;;;;;14.93;13.37;;;;;;;12.11;48.16;99134.25;8350550;28;20204;-77
2022/04/16 07:01:38;;;;;;;16.73;12.83;;;;;;;11.95;47.28;99142.59;8346919;28;20288;-78
2022/04/16 07:05:42;;;;;;;14.70;13.07;;;;;;;12.04;47.17;99137.94;8317435;28;20197;-78
2022/04/16 07:09:45;;;;;;;13.63;12.23;;;;;;;11.65;47.25;99135.66;8342251;28;20526;-79
2022/04/16 07:13:48;;;;;;;12.97;11.57;;;;;;;11.81;47.27;99141.22;8349961;28;20232;-77
2022/04/16 07:17:51;;;;;;;13.03;11.63;;;;;;;11.73;47.12;99151.84;8350021;28;20200;-77
2022/04/16 07:21:55;;;;;;;12.30;11.00;;;;;;;11.42;47.64;99149.28;8349909;28;20208;-72
2022/04/16 07:25:58;;;;;;;12.27;10.97;;;;;;;11.62;46.96;99155.66;8349610;28;20225;-75
2022/04/16 07:30:01;;;;;;;10.97;9.87;;;;;;;11.46;46.93;99150.06;8349936;28;20200;-75
2022/04/16 07:34:04;;;;;;;12.37;9.50;;;;;;;11.13;46.91;99155.31;8349662;28;20235;-75
2022/04/16 07:38:08;;;;;;;10.63;9.40;;;;;;;11.61;45.89;99154.78;8349151;28;20212;-75
2022/04/16 07:42:11;;;;;;;9.63;8.07;;;;;;;11.19;46.18;99168.09;8348966;28;20397;-75
2022/04/16 07:46:15;;;;;;;9.47;8.40;;;;;;;11.67;45.54;99166.72;8349025;28;20239;-75
2022/04/16 07:50:18;;;;;;;9.57;8.60;;;;;;;11.57;45.82;99178.28;8348569;28;20215;-75
2022/04/16 07:54:23;;;;;;;11.90;8.93;;;;;;;11.41;46.14;99175.28;8348565;28;20228;-75
2022/04/16 07:58:28;;;;;;;11.53;9.83;;;;;;;11.32;46.72;99185.00;8349130;28;20201;-76
2022/04/16 08:02:31;;;;;;;12.77;10.17;;;;;;;11.40;46.66;99183.94;8338377;28;20231;-75
2022/04/16 08:06:34;;;;;;;11.60;9.83;;;;;;;11.68;45.42;99189.19;8315929;28;20204;-75
2022/04/16 08:10:38;;;;;;;12.83;9.33;;;;;;;11.73;46.00;99201.16;8316211;28;20208;-75
2022/04/16 08:14:41;;;;;;;12.17;9.63;;;;;;;11.72;46.12;99212.41;8323337;28;20534;-75
2022/04/16 08:18:44;;;;;;;14.73;9.70;;;;;;;11.74;45.91;99214.97;8322890;28;20201;-75
2022/04/16 08:22:47;;;;;;;12.27;10.00;;;;;;;11.53;46.26;99212.09;8322776;28;20208;-75
2022/04/16 08:26:51;;;;;;;11.87;9.03;;;;;;;12.44;43.48;99219.78;8322886;28;20205;-75
2022/04/16 08:30:54;;;;;;;10.80;9.13;;;;;;;12.38;43.37;99217.38;8336437;28;20193;-75
2022/04/16 08:34:58;;;;;;;10.63;8.73;;;;;;;12.54;43.61;99222.09;8321199;28;20300;-75
2022/04/16 08:39:01;;;;;;;10.47;8.87;;;;;;;12.32;43.93;99221.03;8328430;28;20197;-75
2022/04/16 08:43:07;;;;;;;9.57;7.90;;;;;;;12.95;42.49;99218.13;8344571;28;20268;-75
2022/04/16 08:47:10;;;;;;;7.73;6.93;;;;;;;12.83;41.28;99219.41;8336166;28;20197;-75
2022/04/16 08:51:15;;;;;;;7.73;6.67;;;;;;;13.87;39.27;99222.63;8344571;28;20224;-76
2022/04/16 08:55:18;;;;;;;8.60;6.57;;;;;;;13.81;38.54;99222.88;8343993;28;20224;-75
2022/04/16 08:59:22;;;;;;;7.43;6.63;;;;;;;15.00;35.96;99231.22;8344067;28;20208;-75
2022/04/16 09:03:32;;;;;;;6.87;6.00;;;;;;;14.24;37.34;99233.41;8342267;28;20509;-75
2022/04/16 09:07:45;;;;;;;7.53;5.13;;;;;;;15.61;34.84;99227.69;8341312;28;20199;-75
2022/04/16 09:11:48;;;;;;;6.30;4.70;;;;;;;16.00;32.88;99232.06;8333269;28;20193;-75
2022/04/16 09:16:03;;;;;;;7.13;4.73;;;;;;;15.16;33.33;99236.66;8343751;28;20393;-75
2022/04/16 09:20:11;;;;;;;4.70;3.63;;;;;;;15.87;29.66;99234.41;8340983;28;20199;-75
2022/04/16 09:24:14;;;;;;;6.63;3.13;;;;;;;16.60;28.85;99224.84;8345785;28;20280;-75
2022/04/16 09:28:18;;;;;;;3.63;2.70;;;;;;;17.33;27.20;99232.53;8353484;28;20204;-76
2022/04/16 09:32:26;;;;;;;2.50;2.10;;;;;;;17.84;23.92;99221.13;8336904;28;20404;-75
2022/04/16 09:36:30;;;;;;;2.23;1.73;;;;;;;17.40;21.81;99222.56;8325623;28;20231;-75
2022/04/16 09:40:34;;;;;;;2.20;2.00;;;;;;;16.61;22.51;99223.91;8353483;28;20200;-73
2022/04/16 09:44:37;;;;;;;2.30;1.90;;;;;;;16.22;22.88;99209.25;8352582;28;20197;-75
2022/04/16 09:48:41;;;;;;;29.00;23.17;;;;;;;18.17;22.31;99208.84;8346439;28;20196;-76
2022/04/16 09:52:44;;;;;;;2.80;2.00;;;;;;;17.84;21.71;99206.31;8340982;28;20413;-76
2022/04/16 09:56:48;;;;;;;8.47;7.60;;;;;;;18.11;24.58;99206.56;8345852;28;20224;-76
2022/04/16 10:00:51;;;;;;;44.13;36.10;;;;;;;18.91;24.79;99207.28;8342662;28;20192;-73
2022/04/16 10:05:11;;;;;;;6.80;5.60;;;;;;;19.06;24.19;99187.16;8343640;28;20224;-77
2022/04/16 10:09:17;;;;;;;5.23;1.97;;;;;;;19.73;20.27;99186.63;8347309;28;20502;-76
2022/04/16 10:13:21;;;;;;;2.93;1.67;;;;;;;19.36;18.94;99182.75;8339309;28;20193;-76
2022/04/16 10:17:28;;;;;;;2.63;1.80;;;;;;;19.73;20.56;99195.34;8346913;28;20530;-75
2022/04/16 10:21:34;;;;;;;2.00;1.77;;;;;;;19.83;20.32;99190.34;8342630;28;20224;-76
2022/04/16 10:25:42;;;;;;;3.37;2.50;;;;;;;19.57;19.87;99178.78;8338217;28;20225;-75
2022/04/16 10:29:48;;;;;;;2.07;1.50;;;;;;;18.03;20.08;99186.94;8334042;28;20385;-76
2022/04/16 10:34:00;;;;;;;2.93;1.70;;;;;;;19.02;18.46;99183.03;8341977;28;20185;-76
2022/04/16 10:38:04;;;;;;;2.67;1.97;;;;;;;20.03;17.82;99180.34;8336790;28;20519;-76
2022/04/16 10:42:07;;;;;;;4.13;2.07;;;;;;;18.94;18.24;99183.50;8345019;28;20193;-76
2022/04/16 10:46:11;;;;;;;3.30;2.50;;;;;;;19.59;18.47;99186.59;8339820;28;20500;-76
2022/04/16 10:50:15;;;;;;;17.73;15.07;;;;;;;18.62;19.38;99193.22;8339786;28;20192;-76
2022/04/16 10:54:32;;;;;;;1.40;1.30;;;;;;;17.12;20.28;99197.00;8339598;28;20200;-76
2022/04/16 10:58:35;;;;;;;1.67;1.17;;;;;;;19.53;20.08;99196.56;8340539;28;20366;-75
2022/04/16 11:02:38;;;;;;;3.83;1.50;;;;;;;19.96;19.54;99198.31;8343565;28;20204;-76
2022/04/16 11:06:45;;;;;;;3.53;1.40;;;;;;;19.65;19.27;99189.69;8347388;28;20301;-76
2022/04/16 11:10:57;;;;;;;3.00;1.50;;;;;;;19.59;18.39;99197.97;8339698;28;20193;-76
2022/04/16 11:15:00;;;;;;;2.53;1.43;;;;;;;20.25;18.14;99204.31;8335905;28;20528;-76
2022/04/16 11:19:12;;;;;;;2.37;1.33;;;;;;;19.67;17.51;99206.19;8323150;28;20204;-76
2022/04/16 11:23:15;;;;;;;1.53;1.30;;;;;;;20.44;17.13;99205.75;8317497;28;20550;-75
2022/04/16 11:36:06;;;;;;;3.73;1.40;;;;;;;20.68;17.13;99198.91;8317241;28;20509;-75
2022/04/16 11:40:10;;;;;;;2.13;1.40;;;;;;;20.62;17.97;99214.25;8317261;28;20204;-75
2022/04/16 11:44:15;;;;;;;2.20;1.53;;;;;;;20.50;17.49;99200.97;8317139;28;20202;-76
2022/04/16 11:48:18;;;;;;;1.97;1.50;;;;;;;19.71;16.83;99198.97;8316261;28;20217;-76
2022/04/16 11:52:25;;;;;;;3.30;2.13;;;;;;;19.69;19.43;99201.69;8315926;28;20239;-76
2022/04/16 11:56:28;;;;;;;10.23;2.73;;;;;;;21.72;38.70;99213.81;8315782;28;20239;-77
2022/04/16 12:00:35;;;;;;;6.67;2.20;;;;;;;21.83;35.91;99210.41;8316175;28;20208;-73
2022/04/16 12:04:41;;;;;;;9.23;1.80;;;;;;;21.75;29.21;99203.06;8311233;28;20209;-77
2022/04/16 12:08:45;;;;;;;7.67;1.80;;;;;;;21.49;29.98;99218.06;8314415;28;20367;-78
2022/04/16 12:12:49;;;;;;;8.07;1.77;;;;;;;21.88;28.56;99207.47;8308144;28;20201;-77
2022/04/16 12:17:00;;;;;;;6.43;1.83;;;;;;;21.25;30.93;99204.78;8315722;28;20275;-77
2022/04/16 12:21:07;;;;;;;10.43;1.93;;;;;;;21.57;24.36;99205.22;8324067;28;20207;-78
2022/04/16 12:25:11;;;;;;;6.67;2.30;;;;;;;21.50;26.48;99206.59;8349676;28;20345;-82
2022/04/16 12:29:14;;;;;;;5.30;1.77;;;;;;;22.24;26.61;99203.97;8349618;28;20249;-80
2022/04/16 12:33:22;;;;;;;3.53;1.90;;;;;;;21.21;19.54;99206.78;8347824;28;20506;-77
2022/04/16 12:37:25;;;;;;;4.20;1.73;;;;;;;20.25;17.61;99198.22;8347723;28;20228;-76
2022/04/16 12:41:28;;;;;;;3.23;1.60;;;;;;;20.78;18.64;99206.19;8348049;28;20218;-76
2022/04/16 12:45:31;;;;;;;2.87;1.60;;;;;;;20.42;19.34;99203.22;8348060;28;20210;-83
2022/04/16 12:49:36;;;;;;;2.63;1.60;;;;;;;20.14;19.24;99198.91;8348005;28;20197;-76
2022/04/16 12:53:40;;;;;;;5.03;1.70;;;;;;;19.19;20.08;99204.78;8348387;28;20238;-78
2022/04/16 12:57:44;;;;;;;2.77;1.50;;;;;;;20.18;19.07;99197.78;8347421;28;20230;-83
2022/04/16 13:01:47;;;;;;;4.77;1.60;;;;;;;20.08;19.39;99196.66;8341203;28;20219;-76
2022/04/16 13:05:52;;;;;;;5.67;1.60;;;;;;;21.13;19.09;99185.38;8321329;28;20509;-75
2022/04/16 13:09:56;;;;;;;6.30;1.60;;;;;;;20.15;18.53;99184.81;8321022;28;20187;-74
2022/04/16 13:13:59;;;;;;;4.20;1.40;;;;;;;20.76;18.99;99187.88;8320444;28;20209;-79
2022/04/16 13:18:03;;;;;;;5.13;1.33;;;;;;;19.20;18.46;99180.22;8320475;28;20241;-75
2022/04/16 13:22:07;;;;;;;2.87;1.60;;;;;;;20.31;19.32;99177.63;8323212;28;20201;-71
2022/04/16 13:26:10;;;;;;;16.38;2.10;;;;;;;21.01;18.96;99181.78;8352075;28;20415;-76
2022/04/16 13:30:13;;;;;;;2.97;1.40;;;;;;;19.78;18.76;99179.28;8353046;28;20497;-76
2022/04/16 13:34:16;;;;;;;5.37;1.70;;;;;;;19.94;19.61;99181.78;8353722;28;20205;-77
2022/04/16 13:38:20;;;;;;;4.07;1.40;;;;;;;19.99;18.96;99186.75;8352261;28;20226;-76
2022/04/16 13:42:23;;;;;;;2.50;1.40;;;;;;;20.14;21.76;99177.03;8346783;28;20208;-76
2022/04/16 13:46:26;;;;;;;2.93;1.20;;;;;;;20.15;20.44;99165.59;8351517;28;20202;-79
2022/04/16 13:50:30;;;;;;;1.63;1.00;;;;;;;20.00;20.28;99173.50;8349695;28;20386;-77
2022/04/16 13:54:38;;;;;;;2.50;1.40;;;;;;;20.46;20.86;99161.78;8346565;28;20339;-76
2022/04/16 13:58:43;;;;;;;2.00;1.20;;;;;;;20.56;20.05;99170.75;8345369;28;20225;-77
2022/04/16 14:02:46;;;;;;;3.53;1.27;;;;;;;20.76;19.92;99177.34;8323521;28;20199;-76
2022/04/16 14:06:49;;;;;;;4.97;1.60;;;;;;;20.93;20.65;99167.47;8346808;28;20199;-78
2022/04/16 14:10:55;;;;;;;2.67;1.40;;;;;;;21.02;20.09;99166.84;8343419;28;20197;-73
2022/04/16 14:14:59;;;;;;;2.37;1.50;;;;;;;21.05;20.33;99164.00;8343387;28;20207;-76
2022/04/16 14:19:02;;;;;;;2.53;1.30;;;;;;;20.43;20.08;99175.16;8346038;28;20223;-76
2022/04/16 14:23:07;;;;;;;4.00;1.40;;;;;;;19.87;20.04;99167.34;8341376;28;20215;-77
2022/04/16 14:27:13;;;;;;;3.97;1.30;;;;;;;19.91;20.68;99179.34;8341314;28;20201;-77
2022/04/16 14:31:16;;;;;;;4.07;1.50;;;;;;;19.97;20.37;99176.34;8342243;28;20205;-75
2022/04/16 14:35:20;;;;;;;3.17;1.30;;;;;;;18.80;21.00;99174.69;8351420;28;20501;-74
2022/04/16 14:39:23;;;;;;;6.20;1.47;;;;;;;19.83;22.07;99182.44;8350755;28;20235;-76
2022/04/16 14:43:27;;;;;;;2.13;1.10;;;;;;;20.27;20.67;99180.56;8351212;28;20475;-76
2022/04/16 14:47:32;;;;;;;2.73;1.40;;;;;;;20.33;22.61;99174.03;8350927;28;20206;-77
2022/04/16 14:51:39;;;;;;;4.43;1.50;;;;;;;20.18;22.08;99175.88;8338093;28;20242;-78
2022/04/16 14:55:42;;;;;;;2.57;1.10;;;;;;;19.91;22.74;99174.94;8338562;28;20199;-74
2022/04/16 14:59:47;;;;;;;2.23;1.30;;;;;;;19.84;21.17;99176.28;8328087;28;20539;-77
2022/04/16 15:03:50;;;;;;;3.73;1.43;;;;;;;19.96;22.58;99179.91;8331914;28;20198;-77
2022/04/16 15:07:53;;;;;;;2.37;1.10;;;;;;;19.66;22.37;99172.13;8331705;28;20204;-77
2022/04/16 15:11:56;;;;;;;3.70;1.73;;;;;;;19.23;21.92;99166.88;8340364;28;20216;-77
2022/04/16 15:16:01;;;;;;;2.23;1.47;;;;;;;18.58;21.92;99173.31;8343482;28;20200;-76
2022/04/16 15:20:05;;;;;;;8.03;1.67;;;;;;;18.71;22.71;99165.56;8349994;28;20209;-76
2022/04/16 15:24:09;;;;;;;3.90;1.50;;;;;;;18.79;22.42;99171.25;8320874;28;20233;-76
2022/04/16 15:28:12;;;;;;;3.27;1.53;;;;;;;18.31;22.95;99181.84;8320439;28;20204;-76
2022/04/16 15:32:16;;;;;;;7.80;1.80;;;;;;;18.86;23.28;99177.81;8343372;28;20203;-76
2022/04/16 15:36:19;;;;;;;15.70;2.60;;;;;;;18.81;23.62;99176.41;8344837;28;20192;-76
2022/04/16 15:40:23;;;;;;;196.00;169.97;;;;;;;17.95;23.54;99177.75;8347610;28;20203;-76
2022/04/16 15:44:26;;;;;;;33.40;27.07;;;;;;;18.23;23.60;99164.88;8348964;28;20204;-76
2022/04/16 15:48:30;;;;;;;384.80;231.37;;;;;;;17.74;24.61;99169.25;8348966;28;20208;-76
2022/04/16 15:52:34;;;;;;;103.90;80.00;;;;;;;17.73;23.84;99175.41;8345854;28;20232;-76
2022/04/16 15:56:37;;;;;;;15.03;12.37;;;;;;;17.63;23.87;99176.88;8341377;28;20220;-76
2022/04/16 16:00:39;;;;;;;6.20;3.77;;;;;;;17.89;24.09;99172.81;8338711;28;20193;-75
2022/04/16 16:04:56;;;;;;;4.03;3.20;;;;;;;17.47;24.05;99166.34;8333308;28;20219;-76
2022/04/16 16:08:59;;;;;;;9.13;3.60;;;;;;;17.31;24.45;99158.47;8342900;28;20196;-74
2022/04/16 16:13:02;;;;;;;4.50;2.60;;;;;;;17.17;24.68;99164.44;8348357;28;20223;-75
2022/04/16 16:17:06;;;;;;;3.33;2.47;;;;;;;17.28;25.41;99173.50;8348640;28;20228;-75
2022/04/16 16:21:10;;;;;;;4.87;3.33;;;;;;;16.98;24.91;99175.03;8348883;28;20420;-76
2022/04/16 16:25:13;;;;;;;6.23;2.30;;;;;;;16.98;25.07;99164.56;8348557;28;20228;-76
2022/04/16 16:29:18;;;;;;;6.97;2.27;;;;;;;16.45;25.68;99169.81;8349076;28;20212;-78
2022/04/16 16:33:21;;;;;;;3.67;1.90;;;;;;;16.54;25.46;99170.22;8341868;28;20211;-75
2022/04/16 16:37:26;;;;;;;7.67;3.23;;;;;;;16.63;25.65;99165.47;8348992;28;20251;-76
2022/04/16 16:41:29;;;;;;;1256.70;949.40;;;;;;;16.64;26.05;99174.97;8351128;28;20202;-75
2022/04/16 16:45:32;;;;;;;167.43;138.47;;;;;;;16.31;25.88;99175.72;8354932;28;20375;-75
2022/04/16 16:49:36;;;;;;;854.33;547.80;;;;;;;16.47;25.78;99162.75;8354123;28;20204;-77
2022/04/16 16:53:40;;;;;;;18.93;11.30;;;;;;;16.10;26.25;99165.38;8354874;28;20228;-75
2022/04/16 16:57:43;;;;;;;4.07;1.93;;;;;;;16.34;26.60;99165.13;8354587;28;20418;-75
2022/04/16 17:01:47;;;;;;;3.07;1.60;;;;;;;15.73;26.77;99156.69;8342049;28;20264;-75
2022/04/16 17:05:50;;;;;;;4.53;1.97;;;;;;;15.54;26.94;99155.81;8321761;28;20268;-75
2022/04/16 17:09:55;;;;;;;5.60;2.50;;;;;;;15.38;27.51;99153.03;8321475;28;20205;-75
2022/04/16 17:18:38;;;;;;;7.57;2.80;;;;;;;15.50;27.10;99151.63;8320851;28;20307;-75
2022/04/16 17:22:42;;;;;;;8.93;2.50;;;;;;;15.31;27.77;99162.06;8353201;28;20200;-74
2022/04/16 17:26:46;;;;;;;4.07;2.80;;;;;;;14.69;28.43;99154.28;8351934;28;20199;-76
2022/04/16 17:30:49;;;;;;;5.90;2.50;;;;;;;14.70;28.68;99165.56;8353256;28;20506;-76
2022/04/16 17:34:52;;;;;;;3.80;2.30;;;;;;;15.19;28.23;99181.72;8351874;28;20426;-75
2022/04/16 17:42:46;;;;;;;4.20;2.00;;;;;;;14.47;29.22;99188.22;8411219;27;20775;-75
2022/04/16 17:46:51;;;;;;;11.20;9.80;;;;;;;14.37;29.24;99185.09;8410779;28;20200;-74
2022/04/16 17:50:54;;;;;;;2.97;1.73;;;;;;;14.46;30.05;99187.34;8410433;28;20205;-75
2022/04/16 17:54:57;;;;;;;3.13;2.67;;;;;;;14.30;30.10;99196.69;8410781;28;20198;-75
2022/04/16 17:59:01;;;;;;;3.50;3.17;;;;;;;14.37;30.20;99207.72;8410460;28;20273;-75
2022/04/16 18:03:05;;;;;;;4.70;2.60;;;;;;;14.17;30.21;99218.94;8410345;28;20206;-75
2022/04/16 18:07:09;;;;;;;5.20;3.30;;;;;;;14.07;30.62;99223.66;8410206;28;20270;-75
2022/04/16 18:11:12;;;;;;;3.78;2.55;;;;;;;14.71;29.56;99222.84;8408283;28;20417;-75
2022/04/16 18:15:16;;;;;;;2.53;2.00;;;;;;;13.75;30.62;99228.31;8409517;28;20195;-75
2022/04/16 18:19:21;;;;;;;3.07;1.90;;;;;;;13.87;30.70;99234.81;8409981;28;20233;-74
2022/04/16 18:23:24;;;;;;;2.70;2.10;;;;;;;13.72;30.76;99244.03;8409481;28;20219;-74
2022/04/16 18:27:27;;;;;;;4.47;2.00;;;;;;;13.82;31.03;99242.81;8409465;28;20200;-75
2022/04/16 18:31:32;;;;;;;3.30;2.07;;;;;;;13.51;31.59;99250.03;8409157;28;20207;-75
2022/04/16 18:35:37;;;;;;;3.53;2.10;;;;;;;13.59;31.26;99266.22;8409306;28;20206;-75
2022/04/16 18:39:40;;;;;;;4.67;2.30;;;;;;;13.63;31.32;99263.47;8408741;28;20239;-75
2022/04/16 18:43:43;;;;;;;3.40;2.23;;;;;;;13.48;31.38;99259.66;8408843;28;20194;-74
2022/04/16 18:47:48;;;;;;;4.63;2.10;;;;;;;13.76;31.17;99263.84;8408500;28;20195;-75
2022/04/16 18:51:51;;;;;;;4.50;2.40;;;;;;;13.54;32.03;99273.38;8399187;28;20509;-74
2022/04/16 18:55:55;;;;;;;6.03;2.80;;;;;;;13.44;31.83;99271.09;8386791;28;20206;-74
2022/04/16 18:59:59;;;;;;;5.13;2.00;;;;;;;13.41;31.98;99271.19;8386032;28;20619;-75
2022/04/16 19:08:26;;;;;;;6.07;2.30;;;;;;;13.41;31.71;99280.75;8360601;28;20199;-74
2022/04/16 19:12:29;;;;;;;3.87;2.30;;;;;;;13.48;31.63;99280.47;8385867;28;20203;-75
2022/04/16 19:16:33;;;;;;;3.30;1.80;;;;;;;13.27;31.95;99291.59;8385694;28;20206;-76
2022/04/16 19:20:40;;;;;;;2.37;1.73;;;;;;;13.39;31.59;99292.97;8385698;28;20227;-75
2022/04/16 19:24:44;;;;;;;2.93;1.93;;;;;;;13.38;31.79;99286.88;8385500;28;20223;-74
2022/04/16 19:28:47;;;;;;;3.43;2.13;;;;;;;13.06;31.62;99293.16;8385134;28;20314;-75
2022/04/16 19:32:50;;;;;;;2.57;1.83;;;;;;;13.02;32.13;99299.38;8385151;28;20378;-75
2022/04/16 19:36:54;;;;;;;3.83;2.00;;;;;;;12.87;32.49;99300.72;8385116;28;20207;-75